Time;durP1;ratioP1;P1;durP2;ratioP2;P2;SDS_P1;SDS_P2;PMS_P1;PMS_P2;Temp;Humidity;BMP_temperature;BMP_pressure;BME280_temperature;BME280_humidity;BME280_pressure;Samples;Min_cycle;Max_cycle;Signal;HPM_P1;HPM_P2
2022/09/14 00:01:39;;;;;;;3.63;1.10;;;17.50;99.60;;;;;;5067975;28;20082;-37
2022/09/14 00:04:16;;;;;;;2.28;1.00;;;17.50;99.60;;;;;;5066682;28;20111;-36
2022/09/14 00:06:43;;;;;;;5.65;1.30;;;17.50;99.70;;;;;;5067493;28;20039;-37
2022/09/14 00:09:15;;;;;;;5.68;1.20;;;17.50;99.70;;;;;;5067542;28;20465;-37
2022/09/14 00:11:40;;;;;;;3.33;1.03;;;17.50;99.70;;;;;;5047064;28;20036;-37
2022/09/14 00:14:06;;;;;;;6.43;1.33;;;17.50;99.70;;;;;;5061182;28;20040;-35
2022/09/14 00:16:36;;;;;;;4.40;1.20;;;17.50;99.70;;;;;;5067633;28;20455;-38
2022/09/14 00:19:04;;;;;;;4.25;1.33;;;17.50;99.80;;;;;;5066276;28;20491;-37
2022/09/14 00:21:35;;;;;;;4.43;1.17;;;17.50;99.80;;;;;;5066642;28;20020;-36
2022/09/14 00:24:00;;;;;;;4.68;1.73;;;17.50;99.90;;;;;;5066891;28;20039;-37
2022/09/14 00:26:26;;;;;;;3.38;1.10;;;17.50;99.90;;;;;;5067142;28;20017;-36
2022/09/14 00:28:54;;;;;;;4.10;1.23;;;17.50;99.90;;;;;;5067233;28;20464;-36
2022/09/14 00:31:21;;;;;;;3.10;1.23;;;17.50;99.90;;;;;;5067217;28;20021;-36
2022/09/14 00:33:48;;;;;;;3.53;1.10;;;17.50;99.90;;;;;;5061363;28;20444;-36
2022/09/14 00:36:25;;;;;;;5.00;1.10;;;17.50;99.90;;;;;;5067230;28;20020;-37
2022/09/14 00:38:54;;;;;;;3.55;1.10;;;17.50;99.90;;;;;;5066430;28;20519;-35
2022/09/14 00:41:22;;;;;;;4.00;1.20;;;17.50;99.90;;;;;;5067089;28;20047;-37
2022/09/14 00:44:01;;;;;;;4.80;1.00;;;17.50;99.90;;;;;;5066236;28;20027;-37
2022/09/14 00:46:30;;;;;;;2.95;1.00;;;17.50;99.90;;;;;;5065813;28;20468;-36
2022/09/14 00:48:59;;;;;;;4.32;1.10;;;17.50;99.80;;;;;;5066461;28;20605;-36
2022/09/14 00:51:26;;;;;;;4.28;1.10;;;17.50;99.80;;;;;;5066297;28;20120;-36
2022/09/14 00:53:52;;;;;;;4.32;1.15;;;17.50;99.80;;;;;;5064914;28;20041;-35
2022/09/14 00:56:18;;;;;;;4.32;1.40;;;17.50;99.90;;;;;;5066419;28;20086;-37
2022/09/14 00:58:46;;;;;;;3.88;1.00;;;17.50;99.90;;;;;;5066103;28;20041;-36
2022/09/14 01:01:12;;;;;;;4.80;1.17;;;17.40;99.90;;;;;;5065798;28;20111;-38
2022/09/14 01:03:37;;;;;;;3.50;1.20;;;17.50;99.90;;;;;;5066589;28;20115;-36
2022/09/14 01:06:16;;;;;;;4.70;1.20;;;17.40;99.90;;;;;;5066088;28;20529;-36
2022/09/14 01:08:58;;;;;;;3.10;1.48;;;17.40;99.90;;;;;;5045413;28;20386;-36
2022/09/14 01:11:33;;;;;;;;;;;17.40;99.90;;;;;;5064110;28;20028;-36
2022/09/14 01:14:07;;;;;;;4.38;1.25;;;17.40;99.90;;;;;;5066095;28;20393;-37
2022/09/14 01:16:39;;;;;;;3.78;1.00;;;17.40;99.90;;;;;;5065610;28;20024;-36
2022/09/14 01:19:13;;;;;;;5.30;1.10;;;17.40;99.90;;;;;;5066974;28;20033;-38
2022/09/14 01:21:43;;;;;;;1.67;0.82;;;17.40;99.90;;;;;;5065366;28;20040;-36
2022/09/14 01:24:24;;;;;;;4.80;1.60;;;17.40;99.90;;;;;;5066142;28;20032;-36
2022/09/14 01:27:26;;;;;;;4.00;1.00;;;17.40;99.90;;;;;;5065624;28;20040;-45
2022/09/14 01:30:05;;;;;;;7.68;1.15;;;17.40;99.90;;;;;;5065816;28;20032;-37
2022/09/14 01:32:33;;;;;;;2.42;1.00;;;17.40;99.90;;;;;;5065050;28;20036;-36
2022/09/14 01:35:20;;;;;;;1.20;0.90;;;17.30;99.80;;;;;;5065595;28;20021;-36
2022/09/14 01:37:58;;;;;;;4.03;0.90;;;17.30;99.80;;;;;;5065467;28;20036;-36
2022/09/14 01:40:31;;;;;;;2.45;0.90;;;17.30;99.90;;;;;;5066282;28;20033;-36
2022/09/14 01:43:02;;;;;;;2.03;0.95;;;17.30;99.90;;;;;;5065340;28;20062;-35
2022/09/14 01:45:30;;;;;;;3.75;0.90;;;17.30;99.90;;;;;;5066102;28;20111;-36
2022/09/14 01:48:06;;;;;;;4.43;1.02;;;17.30;99.90;;;;;;5065599;28;20028;-36
2022/09/14 01:50:38;;;;;;;3.17;1.10;;;17.30;99.90;;;;;;5065748;28;20122;-36
2022/09/14 01:53:10;;;;;;;2.97;1.10;;;17.30;99.80;;;;;;5065684;28;20541;-37
2022/09/14 01:55:47;;;;;;;2.38;1.00;;;17.30;99.80;;;;;;5066040;28;20025;-35
2022/09/14 01:58:18;;;;;;;2.92;0.80;;;17.30;99.80;;;;;;5064706;28;20111;-35
2022/09/14 02:00:46;;;;;;;2.65;0.93;;;17.30;99.70;;;;;;5064917;28;20028;-35
2022/09/14 02:03:18;;;;;;;1.70;0.68;;;17.30;99.70;;;;;;5066417;28;20021;-37
2022/09/14 02:05:50;;;;;;;2.67;0.85;;;17.20;99.70;;;;;;5065697;28;20242;-37
2022/09/14 02:08:16;;;;;;;2.13;0.85;;;17.20;99.70;;;;;;5065717;28;20078;-36
2022/09/14 02:10:42;;;;;;;3.83;1.00;;;17.20;99.70;;;;;;5064532;28;20036;-35
2022/09/14 02:13:08;;;;;;;1.70;0.60;;;17.20;99.70;;;;;;5065351;28;20484;-36
2022/09/14 02:15:34;;;;;;;1.27;0.70;;;17.20;99.60;;;;;;5065067;28;20103;-36
2022/09/14 02:18:00;;;;;;;1.92;0.90;;;17.30;99.70;;;;;;5064550;28;20050;-35
2022/09/14 02:20:49;;;;;;;3.10;0.90;;;17.20;99.60;;;;;;5065142;28;20025;-37
2022/09/14 02:23:16;;;;;;;1.13;0.70;;;17.20;99.60;;;;;;5064780;28;20342;-36
2022/09/14 02:25:41;;;;;;;2.03;0.80;;;17.20;99.60;;;;;;5064451;28;20110;-36
2022/09/14 02:28:07;;;;;;;1.52;0.70;;;17.20;99.60;;;;;;5064540;28;20106;-36
2022/09/14 02:30:49;;;;;;;2.95;0.68;;;17.20;99.60;;;;;;5064626;28;20101;-36
2022/09/14 02:33:21;;;;;;;2.15;0.75;;;17.20;99.50;;;;;;5064283;28;20684;-35
2022/09/14 02:35:53;;;;;;;2.72;0.93;;;17.20;99.50;;;;;;5064447;28;20025;-37
2022/09/14 02:38:43;;;;;;;3.22;0.73;;;17.10;99.50;;;;;;5064641;28;20052;-36
2022/09/14 02:41:21;;;;;;;1.92;0.68;;;17.10;99.50;;;;;;5065194;28;20063;-36
2022/09/14 02:43:59;;;;;;;2.15;0.63;;;17.10;99.60;;;;;;5064609;28;20028;-36
2022/09/14 02:46:42;;;;;;;2.25;0.75;;;17.10;99.60;;;;;;5063768;28;20070;-35
2022/09/14 02:49:24;;;;;;;2.35;0.73;;;17.10;99.50;;;;;;5064444;28;20078;-36
2022/09/14 02:51:58;;;;;;;1.60;0.57;;;17.10;99.70;;;;;;5064539;28;20213;-36
2022/09/14 02:54:36;;;;;;;1.45;0.60;;;17.10;99.50;;;;;;5063452;28;20147;-38
2022/09/14 02:57:02;;;;;;;2.58;0.70;;;17.10;99.50;;;;;;5064586;28;20087;-39
2022/09/14 02:59:29;;;;;;;1.85;0.68;;;17.10;99.40;;;;;;5063988;28;20036;-36
2022/09/14 03:01:55;;;;;;;4.97;0.80;;;17.10;99.40;;;;;;5064061;28;20040;-36
2022/09/14 03:04:21;;;;;;;3.60;0.80;;;17.10;99.50;;;;;;5064497;28;20021;-38
2022/09/14 03:06:47;;;;;;;2.03;0.80;;;17.00;99.60;;;;;;5063483;28;20507;-37
2022/09/14 03:09:12;;;;;;;4.18;1.00;;;17.00;99.70;;;;;;5064552;28;20399;-35
2022/09/14 03:11:38;;;;;;;2.85;0.80;;;17.00;99.80;;;;;;5064449;28;20028;-35
2022/09/14 03:14:03;;;;;;;3.60;0.90;;;17.00;99.80;;;;;;5063346;28;20471;-36
2022/09/14 03:16:29;;;;;;;2.45;0.70;;;16.90;99.90;;;;;;5065421;28;20078;-36
2022/09/14 03:18:54;;;;;;;2.80;0.82;;;16.90;99.90;;;;;;5071416;28;20597;-36
2022/09/14 03:21:20;;;;;;;3.47;0.90;;;16.90;99.90;;;;;;5070614;28;20017;-35
2022/09/14 03:23:47;;;;;;;2.25;0.82;;;16.80;99.90;;;;;;5070349;28;20418;-37
2022/09/14 03:26:16;;;;;;;1.75;1.23;;;16.80;99.90;;;;;;5070837;28;20467;-36
2022/09/14 03:28:42;;;;;;;2.67;1.05;;;16.70;99.90;;;;;;5070187;28;20034;-37
2022/09/14 03:31:09;;;;;;;3.65;1.15;;;16.70;99.90;;;;;;5070540;28;20039;-36
2022/09/14 03:33:35;;;;;;;3.28;0.95;;;16.70;99.90;;;;;;5071088;28;20482;-37
2022/09/14 03:36:09;;;;;;;2.78;0.90;;;16.60;99.90;;;;;;5069947;28;20017;-36
2022/09/14 03:38:35;;;;;;;3.33;0.70;;;16.60;99.90;;;;;;5050735;28;20029;-36
2022/09/14 03:41:00;;;;;;;3.85;1.02;;;16.60;99.90;;;;;;5065157;28;20031;-36
2022/09/14 03:43:26;;;;;;;2.28;0.70;;;16.50;99.90;;;;;;5070073;28;20032;-36
2022/09/14 03:45:51;;;;;;;2.60;0.75;;;16.50;99.90;;;;;;5070565;28;20529;-35
2022/09/14 03:48:17;;;;;;;2.15;0.75;;;16.50;99.90;;;;;;5070467;28;20038;-36
2022/09/14 03:50:42;;;;;;;3.55;0.88;;;16.50;99.90;;;;;;5069001;28;20488;-36
2022/09/14 03:53:08;;;;;;;2.67;1.27;;;16.50;99.90;;;;;;5070625;28;20040;-37
2022/09/14 03:55:34;;;;;;;2.95;0.80;;;16.50;99.90;;;;;;5070208;28;20102;-36
2022/09/14 03:57:59;;;;;;;4.03;0.70;;;16.50;99.90;;;;;;5069765;28;20059;-37
2022/09/14 04:00:24;;;;;;;2.45;0.80;;;16.50;99.90;;;;;;5070880;28;20415;-37
2022/09/14 04:02:51;;;;;;;4.47;0.70;;;16.50;99.90;;;;;;5070192;28;20059;-37
2022/09/14 04:05:17;;;;;;;3.45;0.80;;;16.50;99.90;;;;;;5071302;28;20025;-36
2022/09/14 04:07:43;;;;;;;4.35;0.80;;;16.60;99.90;;;;;;5071663;28;20044;-36
2022/09/14 04:10:09;;;;;;;2.60;0.70;;;16.60;99.90;;;;;;5070807;28;20056;-35
2022/09/14 04:12:36;;;;;;;3.17;0.85;;;16.60;99.90;;;;;;5071757;28;20114;-37
2022/09/14 04:15:06;;;;;;;4.60;0.80;;;16.60;99.90;;;;;;5072245;28;20024;-36
2022/09/14 04:17:32;;;;;;;2.47;0.88;;;16.60;99.90;;;;;;5070935;28;20036;-36
2022/09/14 04:19:57;;;;;;;3.63;0.90;;;16.60;99.90;;;;;;5070811;28;20032;-36
2022/09/14 04:22:23;;;;;;;1.25;0.63;;;16.60;99.90;;;;;;5070568;28;20024;-38
2022/09/14 04:24:49;;;;;;;2.65;0.80;;;16.60;99.90;;;;;;5070513;28;20024;-36
2022/09/14 04:27:15;;;;;;;2.33;0.70;;;16.60;99.90;;;;;;5070050;28;20323;-37
2022/09/14 04:29:40;;;;;;;3.97;0.80;;;16.60;99.90;;;;;;5066390;28;20364;-36
2022/09/14 04:32:06;;;;;;;1.90;0.60;;;16.60;99.90;;;;;;5066718;28;20563;-36
2022/09/14 04:34:31;;;;;;;5.70;0.80;;;16.60;99.90;;;;;;5067983;28;20028;-37
2022/09/14 04:36:57;;;;;;;2.72;0.80;;;16.60;99.90;;;;;;5067846;28;20639;-36
2022/09/14 04:39:22;;;;;;;1.90;0.80;;;16.60;99.90;;;;;;5066048;28;20073;-36
2022/09/14 04:41:48;;;;;;;4.10;1.15;;;16.60;99.90;;;;;;5067221;28;20024;-38
2022/09/14 04:44:14;;;;;;;2.45;0.60;;;16.60;99.90;;;;;;5066912;28;20358;-36
2022/09/14 04:46:41;;;;;;;4.05;0.80;;;16.60;99.90;;;;;;5066819;28;20055;-36
2022/09/14 04:49:07;;;;;;;2.83;0.50;;;16.50;99.90;;;;;;5066708;28;20067;-37
2022/09/14 04:51:34;;;;;;;1.73;0.60;;;16.50;99.90;;;;;;5066999;28;20056;-37
2022/09/14 04:54:01;;;;;;;3.13;0.70;;;16.50;99.90;;;;;;5066560;28;20058;-37
2022/09/14 04:56:29;;;;;;;2.78;1.02;;;16.50;99.90;;;;;;5066730;28;20036;-36
2022/09/14 04:58:58;;;;;;;2.25;0.70;;;16.50;99.90;;;;;;5066693;28;20397;-37
2022/09/14 05:01:29;;;;;;;3.13;0.73;;;16.50;99.90;;;;;;5045448;28;20104;-37
2022/09/14 05:03:55;;;;;;;2.80;0.70;;;16.50;99.90;;;;;;5062258;28;20472;-37
2022/09/14 05:06:23;;;;;;;3.30;1.25;;;16.50;99.90;;;;;;5065593;28;20031;-36
2022/09/14 05:08:49;;;;;;;1.52;0.60;;;16.50;99.90;;;;;;5066634;28;20111;-37
2022/09/14 05:11:18;;;;;;;2.65;0.80;;;16.50;99.90;;;;;;5066524;28;20029;-37
2022/09/14 05:13:44;;;;;;;1.33;0.70;;;16.40;99.90;;;;;;5065538;28;20488;-36
2022/09/14 05:16:15;;;;;;;2.00;0.65;;;16.50;99.90;;;;;;5066397;28;20111;-36
2022/09/14 05:18:42;;;;;;;3.47;0.82;;;16.50;99.90;;;;;;5066387;28;20430;-36
2022/09/14 05:21:10;;;;;;;1.42;0.75;;;16.40;99.90;;;;;;5065760;28;20028;-36
2022/09/14 05:23:36;;;;;;;3.35;0.68;;;16.50;99.90;;;;;;5066339;28;20024;-37
2022/09/14 05:26:03;;;;;;;2.20;0.70;;;16.50;99.90;;;;;;5066740;28;20024;-37
2022/09/14 05:28:31;;;;;;;2.47;0.80;;;16.50;99.90;;;;;;5065331;28;20139;-36
2022/09/14 05:30:56;;;;;;;2.35;0.77;;;16.50;99.90;;;;;;5066505;28;20032;-36
2022/09/14 05:33:22;;;;;;;2.00;0.70;;;16.50;99.90;;;;;;5065903;28;20046;-37
2022/09/14 05:35:49;;;;;;;4.18;0.93;;;16.40;99.90;;;;;;5065859;28;20025;-36
2022/09/14 05:38:15;;;;;;;2.42;0.90;;;16.50;99.90;;;;;;5065445;28;20074;-37
2022/09/14 05:40:40;;;;;;;2.45;0.75;;;16.40;99.90;;;;;;5065275;28;20056;-38
2022/09/14 05:43:06;;;;;;;1.52;0.90;;;16.40;99.90;;;;;;5065369;28;20166;-37
2022/09/14 05:45:33;;;;;;;1.92;0.70;;;16.40;99.90;;;;;;5065516;28;20032;-36
2022/09/14 05:48:03;;;;;;;3.13;0.90;;;16.40;99.90;;;;;;5068103;28;20047;-36
2022/09/14 05:50:33;;;;;;;3.40;0.80;;;16.40;99.90;;;;;;5069306;28;20022;-37
2022/09/14 05:52:59;;;;;;;2.53;0.70;;;16.40;99.90;;;;;;5080161;28;20032;-36
2022/09/14 05:55:24;;;;;;;2.72;0.80;;;16.40;99.90;;;;;;5068882;28;20021;-36
2022/09/14 05:57:51;;;;;;;2.42;0.70;;;16.40;99.90;;;;;;5063616;28;20463;-38
2022/09/14 06:00:17;;;;;;;2.22;0.88;;;16.40;99.90;;;;;;5064021;28;20020;-38
2022/09/14 06:02:47;;;;;;;1.52;0.80;;;16.30;99.90;;;;;;5064109;28;20095;-36
2022/09/14 06:05:13;;;;;;;1.77;0.60;;;16.30;99.90;;;;;;5064155;28;20074;-37
2022/09/14 06:07:39;;;;;;;2.47;0.70;;;16.30;99.90;;;;;;5064314;28;20090;-37
2022/09/14 06:10:05;;;;;;;5.40;0.98;;;16.30;99.90;;;;;;5064090;28;20021;-37
2022/09/14 06:12:31;;;;;;;3.13;0.70;;;16.30;99.90;;;;;;5063983;28;20526;-37
2022/09/14 06:14:57;;;;;;;3.30;0.70;;;16.30;99.90;;;;;;5064285;28;20020;-37
2022/09/14 06:17:23;;;;;;;1.80;0.82;;;16.30;99.90;;;;;;5063306;28;20027;-37
2022/09/14 06:19:48;;;;;;;4.57;0.80;;;16.30;99.90;;;;;;5064694;28;20021;-36
2022/09/14 06:22:14;;;;;;;1.67;0.80;;;16.40;99.90;;;;;;5062967;28;20961;-38
2022/09/14 06:24:39;;;;;;;3.78;0.90;;;16.40;99.90;;;;;;5063412;28;20032;-38
2022/09/14 06:27:07;;;;;;;2.85;0.80;;;16.40;99.90;;;;;;5063957;28;20036;-35
2022/09/14 06:29:33;;;;;;;2.63;0.90;;;16.50;99.90;;;;;;5064925;28;20040;-38
2022/09/14 06:31:59;;;;;;;3.55;0.75;;;16.50;99.90;;;;;;5063702;28;20094;-38
2022/09/14 06:34:24;;;;;;;3.47;1.00;;;16.50;99.90;;;;;;5062608;28;21078;-37
2022/09/14 06:36:50;;;;;;;2.50;0.80;;;16.50;99.90;;;;;;5064763;28;20554;-37
2022/09/14 06:39:16;;;;;;;2.55;1.20;;;16.40;99.90;;;;;;5063577;28;20123;-38
2022/09/14 06:41:42;;;;;;;3.05;0.80;;;16.50;99.90;;;;;;5065091;28;20392;-37
2022/09/14 06:44:10;;;;;;;2.88;0.85;;;16.50;99.90;;;;;;5064091;28;20032;-37
2022/09/14 06:46:36;;;;;;;1.83;0.90;;;16.40;99.90;;;;;;5063632;28;20027;-37
2022/09/14 06:49:19;;;;;;;2.70;0.73;;;16.40;99.90;;;;;;5064554;28;20028;-38
2022/09/14 06:51:46;;;;;;;1.50;0.80;;;16.50;99.90;;;;;;5063014;28;20020;-37
2022/09/14 06:54:14;;;;;;;1.90;0.80;;;16.50;99.90;;;;;;5063988;28;20028;-40
2022/09/14 06:56:41;;;;;;;2.58;0.60;;;16.50;99.90;;;;;;5064123;28;20415;-37
2022/09/14 06:59:12;;;;;;;3.55;0.93;;;16.50;99.90;;;;;;5064610;28;20045;-36
2022/09/14 07:01:37;;;;;;;2.67;0.98;;;16.50;99.90;;;;;;5065008;28;20027;-36
2022/09/14 07:04:04;;;;;;;1.73;0.75;;;16.50;99.90;;;;;;5063944;28;20370;-38
2022/09/14 07:06:38;;;;;;;2.85;1.13;;;16.50;99.90;;;;;;5063467;28;20048;-37
2022/09/14 07:09:04;;;;;;;4.00;0.90;;;16.60;99.90;;;;;;5064356;28;20060;-40
2022/09/14 07:11:30;;;;;;;1.92;0.90;;;16.60;99.90;;;;;;5063946;28;20431;-38
2022/09/14 07:13:57;;;;;;;1.95;0.80;;;16.60;99.90;;;;;;5063674;28;20502;-38
2022/09/14 07:16:24;;;;;;;2.67;0.80;;;16.60;99.90;;;;;;5064049;28;20028;-38
2022/09/14 07:18:57;;;;;;;4.43;1.08;;;16.60;99.90;;;;;;5063720;28;20035;-39
2022/09/14 07:21:24;;;;;;;1.50;0.80;;;16.60;99.90;;;;;;5063601;28;20029;-37
2022/09/14 07:23:50;;;;;;;1.35;0.52;;;16.60;99.90;;;;;;5064329;28;20457;-37
2022/09/14 07:26:23;;;;;;;7.93;2.28;;;16.60;99.90;;;;;;5063597;28;20031;-37
2022/09/14 07:28:54;;;;;;;3.25;0.90;;;16.60;99.90;;;;;;5062987;28;20078;-37
2022/09/14 07:31:23;;;;;;;3.22;0.90;;;16.60;99.90;;;;;;5064532;28;20033;-38
2022/09/14 07:33:58;;;;;;;1.77;0.88;;;16.60;99.90;;;;;;5063508;28;20622;-38
2022/09/14 07:36:26;;;;;;;2.35;0.70;;;16.60;99.90;;;;;;5062477;28;20064;-38
2022/09/14 07:38:52;;;;;;;4.82;0.70;;;16.70;99.90;;;;;;5064468;28;20020;-36
2022/09/14 07:41:21;;;;;;;1.50;0.80;;;16.60;99.90;;;;;;5062845;28;20020;-40
2022/09/14 07:43:49;;;;;;;3.80;1.00;;;16.70;99.90;;;;;;5064218;28;20461;-37
2022/09/14 07:46:14;;;;;;;2.17;0.98;;;16.60;99.90;;;;;;5063701;28;20109;-37
2022/09/14 07:48:40;;;;;;;3.63;1.60;;;16.60;99.90;;;;;;5063168;28;20098;-37
2022/09/14 07:51:07;;;;;;;2.80;1.02;;;16.60;99.90;;;;;;5063941;28;20036;-36
2022/09/14 07:53:41;;;;;;;1.33;0.60;;;16.60;99.90;;;;;;5063623;28;20033;-38
2022/09/14 07:56:09;;;;;;;3.28;1.10;;;16.70;99.90;;;;;;5063342;28;20025;-36
2022/09/14 07:58:35;;;;;;;2.35;0.82;;;16.70;99.90;;;;;;5063469;28;20048;-38
2022/09/14 08:01:03;;;;;;;2.40;0.93;;;16.80;99.90;;;;;;5064125;28;20024;-38
2022/09/14 08:03:30;;;;;;;2.33;1.10;;;16.80;99.90;;;;;;5064522;28;20020;-38
2022/09/14 08:06:04;;;;;;;2.92;0.98;;;16.80;99.90;;;;;;5067681;28;20028;-38
2022/09/14 08:08:31;;;;;;;3.58;0.90;;;16.90;99.90;;;;;;5067536;28;20060;-37
2022/09/14 08:11:18;;;;;;;1.63;0.60;;;16.90;99.90;;;;;;5063809;28;20107;-38
2022/09/14 08:13:48;;;;;;;1.30;0.60;;;16.90;99.90;;;;;;5068117;28;20536;-38
2022/09/14 08:16:13;;;;;;;2.90;0.88;;;16.90;99.90;;;;;;5067743;28;20017;-37
2022/09/14 08:18:39;;;;;;;1.98;0.63;;;16.90;99.90;;;;;;5068421;28;20040;-37
2022/09/14 08:21:07;;;;;;;1.63;0.70;;;16.90;99.90;;;;;;5067699;28;20031;-37
2022/09/14 08:23:33;;;;;;;3.83;0.73;;;16.90;99.90;;;;;;5067236;28;20105;-37
2022/09/14 08:26:04;;;;;;;1.38;0.73;;;16.90;99.90;;;;;;5067510;28;20027;-38
2022/09/14 08:28:29;;;;;;;1.85;0.60;;;16.90;99.90;;;;;;5067762;28;20361;-38
2022/09/14 08:31:00;;;;;;;2.75;0.80;;;16.90;99.90;;;;;;5067231;28;20590;-38
2022/09/14 08:33:25;;;;;;;2.08;1.00;;;16.90;99.90;;;;;;5043975;28;20468;-39
2022/09/14 08:35:51;;;;;;;2.05;0.75;;;16.90;99.90;;;;;;5061140;28;20024;-38
2022/09/14 08:38:16;;;;;;;2.58;0.90;;;16.90;99.90;;;;;;5066635;28;20040;-38
2022/09/14 08:40:46;;;;;;;1.95;0.77;;;16.90;99.90;;;;;;5066819;28;20082;-38
2022/09/14 08:43:13;;;;;;;7.85;0.93;;;16.90;99.90;;;;;;5066564;28;20036;-37
2022/09/14 08:45:42;;;;;;;3.47;0.77;;;16.90;99.90;;;;;;5066178;28;20061;-36
2022/09/14 08:48:26;;;;;;;1.98;0.80;;;16.90;99.90;;;;;;5066555;28;20032;-37
2022/09/14 08:50:52;;;;;;;2.72;0.80;;;17.00;99.90;;;;;;5067546;28;20090;-37
2022/09/14 08:53:20;;;;;;;2.40;0.75;;;17.00;99.90;;;;;;5065236;28;20492;-37
2022/09/14 08:55:59;;;;;;;2.50;0.80;;;17.00;99.90;;;;;;5066605;28;20039;-47
2022/09/14 08:58:58;;;;;;;3.42;0.80;;;17.00;99.90;;;;;;5065854;28;20056;-37
2022/09/14 09:01:44;;;;;;;1.98;0.60;;;17.10;99.90;;;;;;5066350;28;20098;-37
2022/09/14 09:04:40;;;;;;;2.65;0.65;;;17.10;99.90;;;;;;5065814;28;20471;-37
2022/09/14 09:07:32;;;;;;;2.05;0.70;;;17.10;99.90;;;;;;5065406;28;20178;-38
2022/09/14 09:09:58;;;;;;;2.17;0.60;;;17.10;99.90;;;;;;5047179;28;20435;-37
2022/09/14 09:12:37;;;;;;;2.13;0.80;;;17.10;99.90;;;;;;5062327;28;20036;-37
2022/09/14 09:15:28;;;;;;;0.93;0.40;;;17.10;99.90;;;;;;5065791;28;20032;-38
2022/09/14 09:18:04;;;;;;;2.13;0.75;;;17.10;99.90;;;;;;5065753;28;20112;-38
2022/09/14 09:20:35;;;;;;;2.00;0.90;;;17.10;99.90;;;;;;5065003;28;20021;-36
2022/09/14 09:23:18;;;;;;;2.63;0.70;;;17.10;99.90;;;;;;5066502;28;20476;-37
2022/09/14 09:26:26;;;;;;;3.33;0.63;;;17.10;99.90;;;;;;5066797;28;20029;-38
2022/09/14 09:28:55;;;;;;;2.25;0.70;;;17.20;99.90;;;;;;5062329;28;20505;-37
2022/09/14 09:31:30;;;;;;;2.35;0.50;;;17.20;99.90;;;;;;5065329;28;20028;-38
2022/09/14 09:33:56;;;;;;;2.33;0.70;;;17.20;99.90;;;;;;5065538;28;20553;-37
2022/09/14 09:36:22;;;;;;;1.38;0.60;;;17.30;99.90;;;;;;5064733;28;20052;-38
2022/09/14 09:38:47;;;;;;;2.58;0.70;;;17.30;99.90;;;;;;5066279;28;20024;-37
2022/09/14 09:41:25;;;;;;;1.52;0.50;;;17.30;99.90;;;;;;5065005;28;20040;-37
2022/09/14 09:44:08;;;;;;;1.63;0.60;;;17.40;99.90;;;;;;5065643;28;20460;-38
2022/09/14 09:46:38;;;;;;;2.97;0.70;;;17.40;99.90;;;;;;5066349;28;20024;-36
2022/09/14 09:49:25;;;;;;;3.95;0.80;;;17.40;99.90;;;;;;5064553;28;20052;-38
2022/09/14 09:51:52;;;;;;;1.73;0.65;;;17.40;99.90;;;;;;5065964;28;20029;-37
2022/09/14 09:54:28;;;;;;;2.08;0.73;;;17.50;99.90;;;;;;5065322;28;20032;-37
2022/09/14 09:57:03;;;;;;;3.70;0.80;;;17.50;99.90;;;;;;5065827;28;20024;-37
2022/09/14 09:59:43;;;;;;;2.90;0.70;;;17.50;99.90;;;;;;5064574;28;20390;-37
2022/09/14 10:02:20;;;;;;;1.50;0.60;;;17.60;99.90;;;;;;5064506;28;20078;-37
2022/09/14 10:05:10;;;;;;;2.38;0.75;;;17.60;99.90;;;;;;5065893;28;20050;-37
2022/09/14 10:07:42;;;;;;;2.20;0.70;;;17.60;99.90;;;;;;5065837;28;20025;-37
2022/09/14 10:10:12;;;;;;;3.15;1.15;;;17.70;99.90;;;;;;5064402;28;20036;-38
2022/09/14 10:12:49;;;;;;;1.48;0.77;;;17.70;99.90;;;;;;5065618;28;20051;-37
2022/09/14 10:15:21;;;;;;;1.58;0.80;;;17.80;99.90;;;;;;5063173;28;20369;-35
2022/09/14 10:18:06;;;;;;;1.60;0.88;;;17.80;99.90;;;;;;5064822;28;20032;-38
2022/09/14 10:20:32;;;;;;;2.13;0.80;;;17.80;99.90;;;;;;5064040;28;20024;-37
2022/09/14 10:23:13;;;;;;;2.22;0.88;;;17.80;99.90;;;;;;5064660;28;20043;-38
2022/09/14 10:25:39;;;;;;;4.07;0.90;;;17.80;99.90;;;;;;5063345;28;20858;-38
2022/09/14 10:28:17;;;;;;;1.52;0.90;;;17.90;99.90;;;;;;5064486;28;20063;-38
2022/09/14 10:30:49;;;;;;;2.05;0.90;;;17.90;99.90;;;;;;5061872;28;20811;-38
2022/09/14 10:33:17;;;;;;;2.63;1.02;;;17.90;99.90;;;;;;5064520;28;20032;-38
2022/09/14 10:36:00;;;;;;;1.88;0.80;;;18.00;99.90;;;;;;5065043;28;20090;-38
2022/09/14 10:38:45;;;;;;;3.67;0.90;;;18.10;99.90;;;;;;5063724;28;20113;-37
2022/09/14 10:41:26;;;;;;;3.08;0.98;;;18.20;99.90;;;;;;5063678;28;20059;-38
2022/09/14 10:43:58;;;;;;;2.05;1.05;;;18.20;99.90;;;;;;5064270;28;20024;-37
2022/09/14 10:46:28;;;;;;;;;;;18.30;99.90;;;;;;5064827;28;20020;-37
2022/09/14 10:49:36;;;;;;;3.35;1.40;;;18.40;99.90;;;;;;5065105;28;20405;-37
2022/09/14 10:52:11;;;;;;;4.47;1.70;;;18.40;99.90;;;;;;5032796;28;20104;-38
2022/09/14 10:55:13;;;;;;;4.10;1.90;;;18.40;99.90;;;;;;5062893;28;20468;-37
2022/09/14 10:57:55;;;;;;;3.30;1.70;;;18.40;99.90;;;;;;5064656;28;20563;-38
2022/09/14 11:00:21;;;;;;;4.90;1.90;;;18.30;99.90;;;;;;5064376;28;20020;-37
2022/09/14 11:03:13;;;;;;;2.45;1.58;;;18.30;99.90;;;;;;5065603;28;20040;-38
2022/09/14 11:05:49;;;;;;;5.25;1.60;;;18.30;99.90;;;;;;5064068;28;20035;-38
2022/09/14 11:08:26;;;;;;;3.13;1.45;;;18.30;99.90;;;;;;5064230;28;20032;-43
2022/09/14 11:11:23;;;;;;;2.83;1.70;;;18.30;99.90;;;;;;5065038;28;20036;-38
2022/09/14 11:13:57;;;;;;;2.00;1.42;;;18.30;99.90;;;;;;5044657;28;20033;-36
2022/09/14 11:16:25;;;;;;;3.78;1.70;;;18.30;99.90;;;;;;5059029;28;20392;-36
2022/09/14 11:19:18;;;;;;;2.20;1.40;;;18.30;99.90;;;;;;5064312;28;20035;-38
2022/09/14 11:22:07;;;;;;;5.15;1.67;;;18.40;99.90;;;;;;5064332;28;20383;-38
2022/09/14 11:25:10;;;;;;;2.28;1.60;;;18.30;99.90;;;;;;5065455;28;20029;-36
2022/09/14 11:27:38;;;;;;;3.83;1.80;;;18.40;99.90;;;;;;5048224;28;20089;-37
2022/09/14 11:30:14;;;;;;;2.97;1.63;;;18.40;99.90;;;;;;5064471;28;20032;-38
2022/09/14 11:32:50;;;;;;;2.88;1.48;;;18.40;99.90;;;;;;5061045;28;20033;-38
2022/09/14 11:35:29;;;;;;;2.88;1.70;;;18.40;99.90;;;;;;5063266;28;20032;-38
2022/09/14 11:38:27;;;;;;;4.80;1.80;;;18.40;99.90;;;;;;5062634;28;20074;-37
2022/09/14 11:41:20;;;;;;;6.20;2.40;;;18.40;99.90;;;;;;5067775;28;20027;-37
2022/09/14 11:44:00;;;;;;;3.75;2.20;;;18.40;99.90;;;;;;5057567;28;20041;-38
2022/09/14 11:46:45;;;;;;;2.72;1.60;;;18.40;99.90;;;;;;5068183;28;20388;-38
2022/09/14 11:49:20;;;;;;;2.60;2.10;;;18.50;99.90;;;;;;5067234;28;20056;-38
2022/09/14 11:52:17;;;;;;;3.13;2.67;;;18.50;99.90;;;;;;5068411;28;20480;-36
2022/09/14 11:54:42;;;;;;;5.13;2.00;;;18.50;99.90;;;;;;5067935;28;20050;-38
2022/09/14 11:57:16;;;;;;;4.78;2.10;;;18.50;99.90;;;;;;5067210;28;20036;-38
2022/09/14 11:59:43;;;;;;;3.90;1.92;;;18.60;99.90;;;;;;5067961;28;20028;-37
2022/09/14 12:02:26;;;;;;;4.15;2.40;;;18.60;99.90;;;;;;5065383;28;20017;-38
2022/09/14 12:05:04;;;;;;;3.08;1.90;;;18.70;99.90;;;;;;5068057;28;20028;-39
2022/09/14 12:07:41;;;;;;;2.65;1.90;;;18.70;99.90;;;;;;5066904;28;20033;-37
2022/09/14 12:10:13;;;;;;;3.70;2.50;;;18.70;99.90;;;;;;5067039;28;20036;-37
2022/09/14 12:12:45;;;;;;;5.47;2.60;;;18.80;99.90;;;;;;5067668;28;20028;-37
2022/09/14 12:15:16;;;;;;;3.58;1.92;;;18.80;99.90;;;;;;5066368;28;20468;-38
2022/09/14 12:17:44;;;;;;;4.70;2.60;;;18.90;99.90;;;;;;5067333;28;20032;-38
2022/09/14 12:20:27;;;;;;;4.07;2.00;;;18.80;99.90;;;;;;5067088;28;20027;-39
2022/09/14 12:23:21;;;;;;;2.70;2.13;;;18.90;99.90;;;;;;5066823;28;20384;-37
2022/09/14 12:25:52;;;;;;;2.83;2.38;;;18.90;99.90;;;;;;5067509;28;20331;-36
2022/09/14 12:28:34;;;;;;;3.75;2.10;;;18.90;99.90;;;;;;5066843;28;20105;-38
2022/09/14 12:31:03;;;;;;;2.20;1.73;;;18.90;99.90;;;;;;5067589;28;20166;-38
2022/09/14 12:33:34;;;;;;;4.28;2.70;;;19.00;99.90;;;;;;5066240;28;20119;-38
2022/09/14 12:36:05;;;;;;;4.97;2.75;;;19.00;99.90;;;;;;5067494;28;20070;-39
2022/09/14 12:38:30;;;;;;;3.42;2.20;;;19.10;99.90;;;;;;5066406;28;20460;-38
2022/09/14 12:41:02;;;;;;;4.18;2.50;;;19.10;99.90;;;;;;5067348;28;20025;-38
2022/09/14 12:43:33;;;;;;;5.78;2.60;;;19.10;99.90;;;;;;5065494;28;20527;-38
2022/09/14 12:46:20;;;;;;;4.10;2.60;;;19.20;99.90;;;;;;5066979;28;20361;-37
2022/09/14 12:48:46;;;;;;;3.55;2.00;;;19.20;99.90;;;;;;5066560;28;20256;-37
2022/09/14 12:51:23;;;;;;;4.30;2.10;;;19.20;99.90;;;;;;5065595;28;20071;-37
2022/09/14 12:54:08;;;;;;;3.20;2.20;;;19.30;99.90;;;;;;5066914;28;20085;-38
2022/09/14 12:56:38;;;;;;;5.13;2.47;;;19.30;99.90;;;;;;5067289;28;20024;-37
2022/09/14 12:59:11;;;;;;;2.70;2.10;;;19.30;99.90;;;;;;5065290;28;20131;-37
2022/09/14 13:01:39;;;;;;;5.20;2.00;;;19.40;99.90;;;;;;5067023;28;20607;-37
2022/09/14 13:04:12;;;;;;;3.95;1.77;;;19.40;99.90;;;;;;5067128;28;20051;-37
2022/09/14 13:06:45;;;;;;;2.55;1.83;;;19.50;99.90;;;;;;5066227;28;20323;-37
2022/09/14 13:09:22;;;;;;;3.65;2.10;;;19.50;99.90;;;;;;5065928;28;20128;-37
2022/09/14 13:12:04;;;;;;;3.70;2.00;;;19.50;99.90;;;;;;5066452;28;20028;-38